SVR0150 UAAA-UACC
Flight info
| Callsign | SVR0150 |
|---|---|
| Flight time | 1h 27m |
| Altitude | 36000 |
| Route | K0813F360 ETEDA1B ETEDA W333 BANOS BANOS1D |
| Aircraft | A320/M-SDE3FGHIRWY/LB1 |
Departure
| Time | 2026-04-26 16:07 |
|---|---|
| Airport | Almaty International Airport (UAAA) |
Arrival
| Time | 2026-04-26 17:35 |
|---|---|
| Airport | Nursultan Nazarbayev International Airport (UACC) |
| Time | Latitude | Longitude | Altitude | Speed | Heading |
|---|---|---|---|---|---|
| 2026-04-26 15:52 | 43.34874 | 77.01353 | 2229 ft | 0 kts | 246° |
| 2026-04-26 16:00 | 43.34881 | 77.01372 | 2229 ft | 2 kts | 247° |
| 2026-04-26 16:01 | 43.34888 | 77.01393 | 2223 ft | 2 kts | 245° |
| 2026-04-26 16:01 | 43.34896 | 77.01413 | 2223 ft | 2 kts | 239° |
| 2026-04-26 16:01 | 43.34904 | 77.01432 | 2226 ft | 2 kts | 235° |
| 2026-04-26 16:01 | 43.34914 | 77.01450 | 2224 ft | 2 kts | 223° |
| 2026-04-26 16:02 | 43.34928 | 77.01463 | 2227 ft | 2 kts | 180° |
| 2026-04-26 16:02 | 43.34939 | 77.01462 | 2225 ft | 1 kts | 156° |
| 2026-04-26 16:02 | 43.34940 | 77.01461 | 2225 ft | 0 kts | 156° |
| 2026-04-26 16:03 | 43.34932 | 77.01466 | 2225 ft | 3 kts | 156° |
| 2026-04-26 16:03 | 43.34901 | 77.01484 | 2228 ft | 6 kts | 156° |
| 2026-04-26 16:04 | 43.34848 | 77.01515 | 2224 ft | 10 kts | 158° |
| 2026-04-26 16:04 | 43.34815 | 77.01614 | 2229 ft | 14 kts | 91° |
| 2026-04-26 16:04 | 43.34808 | 77.01770 | 2229 ft | 18 kts | 94° |
| 2026-04-26 16:04 | 43.34798 | 77.01961 | 2228 ft | 22 kts | 95° |
| 2026-04-26 16:05 | 43.34788 | 77.02174 | 2228 ft | 23 kts | 92° |
| 2026-04-26 16:05 | 43.34780 | 77.02395 | 2229 ft | 23 kts | 93° |
| 2026-04-26 16:05 | 43.34772 | 77.02561 | 2224 ft | 9 kts | 92° |
| 2026-04-26 16:05 | 43.34790 | 77.02626 | 2225 ft | 0 kts | 56° |
| 2026-04-26 16:06 | 43.34806 | 77.02658 | 2225 ft | 20 kts | 56° |
| 2026-04-26 16:06 | 43.35018 | 77.03086 | 2226 ft | 85 kts | 57° |
| 2026-04-26 16:06 | 43.35465 | 77.03986 | 2222 ft | 142 kts | 56° |
| 2026-04-26 16:07 | 43.36099 | 77.05269 | 2243 ft | 182 kts | 55° |
| 2026-04-26 16:07 | 43.36825 | 77.06678 | 2859 ft | 181 kts | 56° |
| 2026-04-26 16:07 | 43.37572 | 77.08086 | 3478 ft | 182 kts | 54° |
| 2026-04-26 16:07 | 43.38338 | 77.09586 | 3716 ft | 202 kts | 57° |
| 2026-04-26 16:08 | 43.39159 | 77.11277 | 3923 ft | 224 kts | 58° |
| 2026-04-26 16:08 | 43.39750 | 77.12506 | 4054 ft | 241 kts | 57° |
| 2026-04-26 16:08 | 43.41050 | 77.15177 | 4525 ft | 267 kts | 53° |
| 2026-04-26 16:08 | 43.42508 | 77.16802 | 4968 ft | 278 kts | 18° |
| 2026-04-26 16:09 | 43.44424 | 77.17004 | 5714 ft | 280 kts | 346° |
| 2026-04-26 16:09 | 43.46242 | 77.16096 | 6536 ft | 279 kts | 332° |
| 2026-04-26 16:09 | 43.47944 | 77.14817 | 7351 ft | 279 kts | 328° |
| 2026-04-26 16:09 | 43.49632 | 77.13472 | 8074 ft | 280 kts | 329° |
| 2026-04-26 16:10 | 43.51332 | 77.12139 | 8727 ft | 283 kts | 324° |
| 2026-04-26 16:10 | 43.52792 | 77.10332 | 8940 ft | 282 kts | 307° |
| 2026-04-26 16:10 | 43.53786 | 77.08075 | 9063 ft | 282 kts | 291° |
| 2026-04-26 16:10 | 43.54256 | 77.05456 | 9754 ft | 282 kts | 275° |
| 2026-04-26 16:11 | 43.54386 | 77.02724 | 10321 ft | 292 kts | 274° |
| 2026-04-26 16:11 | 43.54521 | 76.99825 | 10475 ft | 314 kts | 277° |
| 2026-04-26 16:11 | 43.55014 | 76.96792 | 10742 ft | 333 kts | 289° |
| 2026-04-26 16:11 | 43.56019 | 76.93881 | 11345 ft | 340 kts | 301° |
| 2026-04-26 16:12 | 43.57478 | 76.91288 | 11950 ft | 346 kts | 312° |
| 2026-04-26 16:12 | 43.59154 | 76.88896 | 12591 ft | 347 kts | 312° |
| 2026-04-26 16:12 | 43.62510 | 76.84087 | 13703 ft | 352 kts | 311° |
| 2026-04-26 16:13 | 43.64213 | 76.81634 | 14101 ft | 355 kts | 311° |
| 2026-04-26 16:13 | 43.65926 | 76.79167 | 14578 ft | 356 kts | 311° |
| 2026-04-26 16:13 | 43.67654 | 76.76688 | 15047 ft | 360 kts | 312° |
| 2026-04-26 16:13 | 43.69399 | 76.74191 | 15535 ft | 363 kts | 312° |
| 2026-04-26 16:14 | 43.71158 | 76.71669 | 15951 ft | 366 kts | 312° |
| 2026-04-26 16:14 | 43.72929 | 76.69125 | 16390 ft | 367 kts | 312° |
| 2026-04-26 16:14 | 43.76449 | 76.63985 | 17192 ft | 374 kts | 310° |
| 2026-04-26 16:15 | 43.78209 | 76.61319 | 17710 ft | 377 kts | 310° |
| 2026-04-26 16:15 | 43.79966 | 76.58618 | 18127 ft | 379 kts | 310° |
| 2026-04-26 16:15 | 43.81730 | 76.55884 | 18521 ft | 380 kts | 310° |
| 2026-04-26 16:16 | 43.85455 | 76.50601 | 19252 ft | 389 kts | 322° |
| 2026-04-26 16:16 | 43.87852 | 76.48809 | 19713 ft | 395 kts | 337° |
| 2026-04-26 16:16 | 43.88948 | 76.48319 | 19869 ft | 398 kts | 344° |
| 2026-04-26 16:18 | 43.92176 | 76.47858 | 20098 ft | 413 kts | 3° |
| 2026-04-26 16:19 | 43.94253 | 76.48338 | 20574 ft | 412 kts | 13° |
| 2026-04-26 16:19 | 43.96953 | 76.49686 | 21079 ft | 412 kts | 20° |
| 2026-04-26 16:19 | 44.01398 | 76.52130 | 21658 ft | 415 kts | 20° |
| 2026-04-26 16:20 | 44.05000 | 76.54131 | 22221 ft | 419 kts | 20° |
| 2026-04-26 16:20 | 44.10430 | 76.57164 | 23012 ft | 423 kts | 18° |
| 2026-04-26 16:20 | 44.13202 | 76.58262 | 23290 ft | 420 kts | 8° |
| 2026-04-26 16:21 | 44.16107 | 76.58697 | 23631 ft | 419 kts | 358° |
| 2026-04-26 16:21 | 44.19001 | 76.58438 | 23829 ft | 418 kts | 348° |
| 2026-04-26 16:21 | 44.21834 | 76.57576 | 24085 ft | 418 kts | 344° |
| 2026-04-26 16:21 | 44.24667 | 76.56619 | 24347 ft | 420 kts | 344° |
| 2026-04-26 16:22 | 44.27508 | 76.55659 | 24648 ft | 422 kts | 344° |
| 2026-04-26 16:22 | 44.30373 | 76.54694 | 24962 ft | 424 kts | 344° |
| 2026-04-26 16:22 | 44.33238 | 76.53713 | 25206 ft | 424 kts | 341° |
| 2026-04-26 16:22 | 44.36004 | 76.52328 | 25406 ft | 421 kts | 335° |
| 2026-04-26 16:23 | 44.38671 | 76.50768 | 25581 ft | 422 kts | 335° |
| 2026-04-26 16:23 | 44.41389 | 76.49177 | 25787 ft | 424 kts | 335° |
| 2026-04-26 16:23 | 44.44121 | 76.47578 | 25996 ft | 425 kts | 335° |
| 2026-04-26 16:23 | 44.46857 | 76.45971 | 26180 ft | 427 kts | 335° |
| 2026-04-26 16:24 | 44.49603 | 76.44358 | 26387 ft | 429 kts | 335° |
| 2026-04-26 16:24 | 44.52366 | 76.42745 | 26662 ft | 431 kts | 335° |
| 2026-04-26 16:24 | 44.55142 | 76.41128 | 26961 ft | 432 kts | 335° |
| 2026-04-26 16:24 | 44.57923 | 76.39505 | 27205 ft | 434 kts | 335° |
| 2026-04-26 16:25 | 44.60716 | 76.37871 | 27487 ft | 436 kts | 334° |
| 2026-04-26 16:25 | 44.63511 | 76.36227 | 27736 ft | 435 kts | 334° |
| 2026-04-26 16:25 | 44.66311 | 76.34573 | 27932 ft | 438 kts | 334° |
| 2026-04-26 16:25 | 44.69086 | 76.32937 | 28188 ft | 437 kts | 334° |
| 2026-04-26 16:26 | 44.71889 | 76.31277 | 28378 ft | 439 kts | 334° |
| 2026-04-26 16:26 | 44.73788 | 76.30150 | 28495 ft | 439 kts | 334° |
| 2026-04-26 16:26 | 44.77519 | 76.27929 | 28755 ft | 441 kts | 334° |
| 2026-04-26 16:26 | 44.80349 | 76.26249 | 29000 ft | 443 kts | 334° |
| 2026-04-26 16:27 | 44.83192 | 76.24565 | 29246 ft | 444 kts | 334° |
| 2026-04-26 16:27 | 44.86036 | 76.22882 | 29459 ft | 444 kts | 334° |
| 2026-04-26 16:27 | 44.88882 | 76.21197 | 29637 ft | 444 kts | 334° |
| 2026-04-26 16:27 | 44.91742 | 76.19504 | 29837 ft | 446 kts | 334° |
| 2026-04-26 16:28 | 44.94602 | 76.17810 | 30024 ft | 447 kts | 334° |
| 2026-04-26 16:28 | 44.97467 | 76.16107 | 30183 ft | 446 kts | 334° |
| 2026-04-26 16:28 | 45.00285 | 76.14425 | 30327 ft | 446 kts | 334° |
| 2026-04-26 16:28 | 45.03135 | 76.12720 | 30528 ft | 444 kts | 334° |
| 2026-04-26 16:29 | 45.05969 | 76.11014 | 30653 ft | 441 kts | 334° |
| 2026-04-26 16:29 | 45.08796 | 76.09314 | 30784 ft | 440 kts | 334° |
| 2026-04-26 16:29 | 45.11613 | 76.07619 | 30910 ft | 441 kts | 334° |
| 2026-04-26 16:29 | 45.14449 | 76.05922 | 31044 ft | 442 kts | 334° |
| 2026-04-26 16:30 | 45.17280 | 76.04229 | 31185 ft | 442 kts | 334° |
| 2026-04-26 16:30 | 45.20120 | 76.02534 | 31358 ft | 442 kts | 334° |
| 2026-04-26 16:30 | 45.22897 | 76.00857 | 31489 ft | 440 kts | 333° |
| 2026-04-26 16:30 | 45.25706 | 75.99156 | 31615 ft | 438 kts | 333° |
| 2026-04-26 16:31 | 45.28506 | 75.97460 | 31736 ft | 439 kts | 333° |
| 2026-04-26 16:31 | 45.31325 | 75.95758 | 31882 ft | 441 kts | 333° |
| 2026-04-26 16:31 | 45.34139 | 75.94054 | 32012 ft | 439 kts | 333° |
| 2026-04-26 16:31 | 45.36951 | 75.92354 | 32144 ft | 440 kts | 333° |
| 2026-04-26 16:32 | 45.39761 | 75.90650 | 32278 ft | 438 kts | 333° |
| 2026-04-26 16:32 | 45.41622 | 75.89522 | 32369 ft | 440 kts | 333° |
| 2026-04-26 16:32 | 45.44443 | 75.87813 | 32524 ft | 441 kts | 333° |
| 2026-04-26 16:32 | 45.47258 | 75.86107 | 32691 ft | 441 kts | 333° |
| 2026-04-26 16:33 | 45.51031 | 75.83816 | 32925 ft | 441 kts | 333° |
| 2026-04-26 16:33 | 45.53813 | 75.82126 | 33112 ft | 441 kts | 333° |
| 2026-04-26 16:33 | 45.56633 | 75.80409 | 33311 ft | 441 kts | 333° |
| 2026-04-26 16:33 | 45.59454 | 75.78687 | 33505 ft | 440 kts | 333° |
| 2026-04-26 16:34 | 45.62270 | 75.76970 | 33712 ft | 439 kts | 333° |
| 2026-04-26 16:34 | 45.65080 | 75.75252 | 33898 ft | 439 kts | 333° |
| 2026-04-26 16:34 | 45.66941 | 75.74110 | 34000 ft | 438 kts | 333° |
| 2026-04-26 16:34 | 45.69738 | 75.72393 | 34158 ft | 438 kts | 333° |
| 2026-04-26 16:35 | 45.72531 | 75.70677 | 34288 ft | 436 kts | 333° |
| 2026-04-26 16:35 | 45.75305 | 75.68970 | 34407 ft | 433 kts | 332° |
| 2026-04-26 16:35 | 45.78967 | 75.66716 | 34569 ft | 432 kts | 332° |
| 2026-04-26 16:35 | 45.81719 | 75.65020 | 34693 ft | 430 kts | 332° |
| 2026-04-26 16:36 | 45.86261 | 75.62212 | 34896 ft | 426 kts | 332° |
| 2026-04-26 16:36 | 45.88994 | 75.60526 | 35021 ft | 427 kts | 332° |
| 2026-04-26 16:36 | 45.91719 | 75.58850 | 35144 ft | 427 kts | 332° |
| 2026-04-26 16:37 | 45.94446 | 75.57177 | 35273 ft | 426 kts | 332° |
| 2026-04-26 16:37 | 45.97165 | 75.55500 | 35394 ft | 425 kts | 332° |
| 2026-04-26 16:37 | 46.00752 | 75.53282 | 35560 ft | 423 kts | 332° |
| 2026-04-26 16:37 | 46.02570 | 75.52153 | 35649 ft | 420 kts | 332° |
| 2026-04-26 16:38 | 46.08778 | 75.48291 | 35943 ft | 416 kts | 329° |
| 2026-04-26 16:38 | 46.13211 | 75.45528 | 36001 ft | 420 kts | 329° |
| 2026-04-26 16:39 | 46.18597 | 75.42156 | 35998 ft | 424 kts | 329° |
| 2026-04-26 16:39 | 46.24067 | 75.38730 | 36001 ft | 432 kts | 329° |
| 2026-04-26 16:40 | 46.29635 | 75.35267 | 35999 ft | 438 kts | 329° |
| 2026-04-26 16:40 | 46.35266 | 75.31777 | 36000 ft | 442 kts | 329° |
| 2026-04-26 16:41 | 46.40902 | 75.28271 | 36009 ft | 445 kts | 329° |
| 2026-04-26 16:41 | 46.46608 | 75.24712 | 36004 ft | 446 kts | 329° |
| 2026-04-26 16:42 | 46.52325 | 75.21129 | 36018 ft | 450 kts | 329° |
| 2026-04-26 16:42 | 46.58067 | 75.17524 | 36015 ft | 449 kts | 329° |
| 2026-04-26 16:43 | 46.63802 | 75.13912 | 36018 ft | 448 kts | 329° |
| 2026-04-26 16:43 | 46.69474 | 75.10314 | 36017 ft | 449 kts | 329° |
| 2026-04-26 16:44 | 46.75213 | 75.06689 | 36034 ft | 450 kts | 329° |
| 2026-04-26 16:44 | 46.80952 | 75.03060 | 36030 ft | 448 kts | 329° |
| 2026-04-26 16:45 | 46.86625 | 74.99457 | 36043 ft | 443 kts | 328° |
| 2026-04-26 16:45 | 46.92370 | 74.95966 | 36035 ft | 450 kts | 331° |
| 2026-04-26 16:46 | 46.98218 | 74.92805 | 36033 ft | 452 kts | 332° |
| 2026-04-26 16:46 | 47.04139 | 74.89660 | 36046 ft | 453 kts | 332° |
| 2026-04-26 16:47 | 47.10046 | 74.86428 | 36052 ft | 453 kts | 331° |
| 2026-04-26 16:47 | 47.15934 | 74.83139 | 36056 ft | 453 kts | 331° |
| 2026-04-26 16:48 | 47.21792 | 74.79861 | 36072 ft | 454 kts | 331° |
| 2026-04-26 16:48 | 47.27692 | 74.76570 | 36081 ft | 454 kts | 331° |
| 2026-04-26 16:49 | 47.33597 | 74.73278 | 36086 ft | 454 kts | 331° |
| 2026-04-26 16:49 | 47.39518 | 74.69981 | 36096 ft | 454 kts | 331° |
| 2026-04-26 16:50 | 47.45420 | 74.66675 | 36092 ft | 454 kts | 331° |
| 2026-04-26 16:50 | 47.51327 | 74.63356 | 36101 ft | 454 kts | 331° |
| 2026-04-26 16:51 | 47.57187 | 74.60053 | 36104 ft | 454 kts | 331° |
| 2026-04-26 16:51 | 47.63103 | 74.56737 | 36106 ft | 455 kts | 331° |
| 2026-04-26 16:52 | 47.68016 | 74.53982 | 36107 ft | 454 kts | 331° |
| 2026-04-26 16:52 | 47.74925 | 74.50092 | 36112 ft | 455 kts | 331° |
| 2026-04-26 16:53 | 47.80803 | 74.46768 | 36110 ft | 455 kts | 331° |
| 2026-04-26 16:53 | 47.86702 | 74.43414 | 36123 ft | 455 kts | 331° |
| 2026-04-26 16:54 | 47.92627 | 74.40049 | 36137 ft | 456 kts | 331° |
| 2026-04-26 16:54 | 47.98830 | 74.36529 | 36145 ft | 456 kts | 331° |
| 2026-04-26 16:55 | 48.01780 | 74.34848 | 36034 ft | 454 kts | 333° |
| 2026-04-26 16:55 | 48.04694 | 74.33195 | 36136 ft | 443 kts | 334° |
| 2026-04-26 16:55 | 48.10362 | 74.29974 | 36133 ft | 437 kts | 334° |
| 2026-04-26 16:56 | 48.18861 | 74.25114 | 36140 ft | 436 kts | 334° |
| 2026-04-26 16:57 | 48.24535 | 74.21906 | 36145 ft | 436 kts | 334° |
| 2026-04-26 16:57 | 48.33004 | 74.17118 | 36147 ft | 435 kts | 334° |
| 2026-04-26 16:58 | 48.37701 | 74.14430 | 36144 ft | 434 kts | 334° |
| 2026-04-26 16:59 | 48.47144 | 74.09020 | 36154 ft | 435 kts | 334° |
| 2026-04-26 17:00 | 48.58425 | 74.02563 | 36156 ft | 435 kts | 334° |
| 2026-04-26 17:00 | 48.66911 | 73.97660 | 36145 ft | 435 kts | 334° |
| 2026-04-26 17:01 | 48.72567 | 73.94379 | 36163 ft | 436 kts | 334° |
| 2026-04-26 17:01 | 48.78203 | 73.91116 | 36174 ft | 436 kts | 334° |
| 2026-04-26 17:02 | 48.83875 | 73.87833 | 36173 ft | 437 kts | 334° |
| 2026-04-26 17:02 | 48.89555 | 73.84536 | 36176 ft | 437 kts | 334° |
| 2026-04-26 17:03 | 48.95224 | 73.81215 | 36175 ft | 437 kts | 334° |
| 2026-04-26 17:03 | 49.00853 | 73.77908 | 36168 ft | 436 kts | 334° |
| 2026-04-26 17:04 | 49.06528 | 73.74572 | 36180 ft | 438 kts | 334° |
| 2026-04-26 17:04 | 49.12207 | 73.71229 | 36175 ft | 438 kts | 334° |
| 2026-04-26 17:05 | 49.17893 | 73.67870 | 36188 ft | 438 kts | 334° |
| 2026-04-26 17:05 | 49.23398 | 73.64147 | 36200 ft | 432 kts | 324° |
| 2026-04-26 17:06 | 49.24277 | 73.63359 | 36193 ft | 433 kts | 324° |
| 2026-04-26 17:06 | 49.33851 | 73.54754 | 36191 ft | 432 kts | 324° |
| 2026-04-26 17:07 | 49.39028 | 73.50086 | 36185 ft | 433 kts | 324° |
| 2026-04-26 17:07 | 49.44182 | 73.45426 | 36183 ft | 432 kts | 324° |
| 2026-04-26 17:08 | 49.49365 | 73.40716 | 36186 ft | 434 kts | 324° |
| 2026-04-26 17:08 | 49.54561 | 73.35990 | 36186 ft | 434 kts | 324° |
| 2026-04-26 17:09 | 49.58037 | 73.32821 | 36187 ft | 435 kts | 324° |
| 2026-04-26 17:09 | 49.64076 | 73.27303 | 36186 ft | 435 kts | 324° |
| 2026-04-26 17:10 | 49.69271 | 73.22536 | 36188 ft | 435 kts | 323° |
| 2026-04-26 17:10 | 49.75310 | 73.16979 | 36193 ft | 434 kts | 324° |
| 2026-04-26 17:11 | 49.80519 | 73.12194 | 35959 ft | 436 kts | 323° |
| 2026-04-26 17:12 | 49.90690 | 73.02796 | 33042 ft | 445 kts | 323° |
| 2026-04-26 17:12 | 49.93354 | 73.00332 | 32088 ft | 447 kts | 323° |
| 2026-04-26 17:13 | 49.98662 | 72.95417 | 30791 ft | 439 kts | 324° |
| 2026-04-26 17:13 | 50.01266 | 72.92994 | 30165 ft | 435 kts | 324° |
| 2026-04-26 17:13 | 50.06400 | 72.88197 | 28939 ft | 426 kts | 324° |
| 2026-04-26 17:14 | 50.08931 | 72.85830 | 28377 ft | 426 kts | 322° |
| 2026-04-26 17:14 | 50.13920 | 72.81148 | 27207 ft | 414 kts | 321° |
| 2026-04-26 17:14 | 50.16376 | 72.78846 | 26650 ft | 409 kts | 322° |
| 2026-04-26 17:15 | 50.21188 | 72.74326 | 25557 ft | 399 kts | 322° |
| 2026-04-26 17:15 | 50.23562 | 72.72091 | 25025 ft | 397 kts | 321° |
| 2026-04-26 17:15 | 50.25919 | 72.69867 | 24507 ft | 394 kts | 322° |
| 2026-04-26 17:16 | 50.28258 | 72.67658 | 23999 ft | 391 kts | 322° |
| 2026-04-26 17:16 | 50.30584 | 72.65464 | 23439 ft | 389 kts | 322° |
| 2026-04-26 17:16 | 50.32890 | 72.63287 | 22840 ft | 387 kts | 322° |
| 2026-04-26 17:16 | 50.35157 | 72.61145 | 22261 ft | 385 kts | 322° |
| 2026-04-26 17:17 | 50.37444 | 72.58982 | 21689 ft | 383 kts | 322° |
| 2026-04-26 17:17 | 50.39714 | 72.56828 | 21166 ft | 380 kts | 322° |
| 2026-04-26 17:17 | 50.41962 | 72.54684 | 20662 ft | 377 kts | 322° |
| 2026-04-26 17:17 | 50.44196 | 72.52558 | 20198 ft | 373 kts | 322° |
| 2026-04-26 17:18 | 50.46407 | 72.50459 | 19779 ft | 370 kts | 322° |
| 2026-04-26 17:18 | 50.48598 | 72.48371 | 19367 ft | 367 kts | 322° |
| 2026-04-26 17:18 | 50.50770 | 72.46290 | 18966 ft | 365 kts | 322° |
| 2026-04-26 17:18 | 50.52928 | 72.44219 | 18566 ft | 362 kts | 322° |
| 2026-04-26 17:19 | 50.57187 | 72.40124 | 17634 ft | 358 kts | 323° |
| 2026-04-26 17:19 | 50.59310 | 72.38090 | 17168 ft | 356 kts | 323° |
| 2026-04-26 17:19 | 50.61418 | 72.36070 | 16703 ft | 353 kts | 323° |
| 2026-04-26 17:20 | 50.63506 | 72.34065 | 16241 ft | 351 kts | 323° |
| 2026-04-26 17:20 | 50.64207 | 72.33391 | 16090 ft | 349 kts | 323° |
| 2026-04-26 17:20 | 50.67630 | 72.30097 | 15348 ft | 345 kts | 323° |
| 2026-04-26 17:20 | 50.69647 | 72.28157 | 14916 ft | 343 kts | 324° |
| 2026-04-26 17:21 | 50.71673 | 72.26209 | 14483 ft | 340 kts | 324° |
| 2026-04-26 17:21 | 50.73690 | 72.24268 | 14058 ft | 338 kts | 324° |
| 2026-04-26 17:21 | 50.75691 | 72.22340 | 13588 ft | 336 kts | 324° |
| 2026-04-26 17:21 | 50.77678 | 72.20422 | 13102 ft | 333 kts | 324° |
| 2026-04-26 17:22 | 50.79645 | 72.18520 | 12629 ft | 330 kts | 324° |
| 2026-04-26 17:22 | 50.81588 | 72.16632 | 12160 ft | 327 kts | 324° |
| 2026-04-26 17:22 | 50.83518 | 72.14753 | 11691 ft | 324 kts | 324° |
| 2026-04-26 17:22 | 50.85426 | 72.12892 | 11241 ft | 320 kts | 324° |
| 2026-04-26 17:23 | 50.87290 | 72.11072 | 10798 ft | 318 kts | 324° |
| 2026-04-26 17:23 | 50.89163 | 72.09246 | 10358 ft | 315 kts | 324° |
| 2026-04-26 17:23 | 50.91021 | 72.07436 | 9904 ft | 312 kts | 325° |
| 2026-04-26 17:23 | 50.92854 | 72.05650 | 9556 ft | 304 kts | 325° |
| 2026-04-26 17:24 | 50.94616 | 72.03936 | 9429 ft | 291 kts | 325° |
| 2026-04-26 17:24 | 50.96320 | 72.02336 | 9283 ft | 279 kts | 327° |
| 2026-04-26 17:24 | 50.98004 | 72.00911 | 9110 ft | 271 kts | 329° |
| 2026-04-26 17:24 | 50.99678 | 71.99557 | 8868 ft | 268 kts | 329° |
| 2026-04-26 17:25 | 51.01340 | 71.98224 | 8607 ft | 267 kts | 329° |
| 2026-04-26 17:25 | 51.02989 | 71.96902 | 8341 ft | 266 kts | 329° |
| 2026-04-26 17:25 | 51.04613 | 71.95592 | 8090 ft | 264 kts | 329° |
| 2026-04-26 17:25 | 51.06244 | 71.94268 | 7830 ft | 263 kts | 329° |
| 2026-04-26 17:26 | 51.07864 | 71.92948 | 7575 ft | 260 kts | 329° |
| 2026-04-26 17:26 | 51.09452 | 71.91654 | 7321 ft | 253 kts | 329° |
| 2026-04-26 17:26 | 51.10995 | 71.90398 | 7075 ft | 246 kts | 329° |
| 2026-04-26 17:26 | 51.12498 | 71.89166 | 6820 ft | 239 kts | 329° |
| 2026-04-26 17:27 | 51.13935 | 71.87909 | 6569 ft | 232 kts | 322° |
| 2026-04-26 17:27 | 51.15140 | 71.86288 | 6302 ft | 223 kts | 311° |
| 2026-04-26 17:27 | 51.16201 | 71.84574 | 6061 ft | 218 kts | 312° |
| 2026-04-26 17:27 | 51.17260 | 71.82880 | 5788 ft | 214 kts | 312° |
| 2026-04-26 17:28 | 51.18298 | 71.81219 | 5525 ft | 209 kts | 312° |
| 2026-04-26 17:28 | 51.19314 | 71.79588 | 5296 ft | 204 kts | 311° |
| 2026-04-26 17:28 | 51.20091 | 71.77785 | 5113 ft | 194 kts | 287° |
| 2026-04-26 17:28 | 51.20184 | 71.75699 | 4933 ft | 189 kts | 259° |
| 2026-04-26 17:29 | 51.19599 | 71.73857 | 4750 ft | 190 kts | 232° |
| 2026-04-26 17:29 | 51.19299 | 71.73367 | 4690 ft | 191 kts | 230° |
| 2026-04-26 17:29 | 51.17720 | 71.70891 | 4384 ft | 189 kts | 230° |
| 2026-04-26 17:29 | 51.16785 | 71.69420 | 4197 ft | 189 kts | 230° |
| 2026-04-26 17:30 | 51.15869 | 71.67980 | 4017 ft | 187 kts | 230° |
| 2026-04-26 17:30 | 51.14948 | 71.66529 | 3885 ft | 186 kts | 230° |
| 2026-04-26 17:30 | 51.14056 | 71.65126 | 3821 ft | 173 kts | 230° |
| 2026-04-26 17:30 | 51.13243 | 71.63851 | 3787 ft | 155 kts | 231° |
| 2026-04-26 17:31 | 51.12495 | 71.62676 | 3694 ft | 148 kts | 231° |
| 2026-04-26 17:31 | 51.11772 | 71.61536 | 3532 ft | 145 kts | 231° |
| 2026-04-26 17:31 | 51.11060 | 71.60416 | 3363 ft | 143 kts | 231° |
| 2026-04-26 17:31 | 51.10352 | 71.59305 | 3176 ft | 143 kts | 231° |
| 2026-04-26 17:32 | 51.09648 | 71.58200 | 2986 ft | 142 kts | 231° |
| 2026-04-26 17:32 | 51.08947 | 71.57097 | 2793 ft | 142 kts | 231° |
| 2026-04-26 17:32 | 51.08251 | 71.56021 | 2621 ft | 141 kts | 231° |
| 2026-04-26 17:32 | 51.07529 | 71.54954 | 2429 ft | 141 kts | 229° |
| 2026-04-26 17:33 | 51.06837 | 71.53849 | 2199 ft | 141 kts | 231° |
| 2026-04-26 17:33 | 51.06153 | 71.52718 | 1955 ft | 142 kts | 229° |
| 2026-04-26 17:33 | 51.05452 | 71.51600 | 1717 ft | 144 kts | 227° |
| 2026-04-26 17:34 | 51.04020 | 71.49381 | 1371 ft | 144 kts | 226° |
| 2026-04-26 17:34 | 51.03310 | 71.48267 | 1200 ft | 143 kts | 225° |
| 2026-04-26 17:34 | 51.02650 | 71.47234 | 1165 ft | 113 kts | 224° |
| 2026-04-26 17:34 | 51.02216 | 71.46559 | 1165 ft | 64 kts | 224° |
| 2026-04-26 17:35 | 51.01973 | 71.46180 | 1166 ft | 44 kts | 224° |
| 2026-04-26 17:35 | 51.01779 | 71.45875 | 1164 ft | 26 kts | 224° |
| 2026-04-26 17:35 | 51.01703 | 71.45755 | 1166 ft | 11 kts | 225° |
| 2026-04-26 17:35 | 51.01689 | 71.45668 | 1163 ft | 9 kts | 299° |
| 2026-04-26 17:36 | 51.01733 | 71.45595 | 1163 ft | 9 kts | 314° |
| 2026-04-26 17:36 | 51.01758 | 71.45554 | 1164 ft | 0 kts | 314° |
| 2026-04-26 17:37 | 51.01804 | 71.45491 | 1170 ft | 7 kts | 341° |
| 2026-04-26 17:37 | 51.01834 | 71.45502 | 1164 ft | 6 kts | 30° |
| 2026-04-26 17:37 | 51.01916 | 71.45628 | 1164 ft | 15 kts | 45° |
| 2026-04-26 17:38 | 51.02050 | 71.45835 | 1164 ft | 12 kts | 44° |
| 2026-04-26 17:38 | 51.02087 | 71.45893 | 1164 ft | 11 kts | 44° |
| 2026-04-26 17:38 | 51.02164 | 71.46014 | 1164 ft | 15 kts | 45° |
| 2026-04-26 17:38 | 51.02216 | 71.46095 | 1161 ft | 15 kts | 44° |
| 2026-04-26 17:39 | 51.02283 | 71.46199 | 1164 ft | 8 kts | 44° |
| 2026-04-26 17:39 | 51.02321 | 71.46244 | 1164 ft | 6 kts | 19° |
| 2026-04-26 17:39 | 51.02363 | 71.46220 | 1164 ft | 10 kts | 317° |
| 2026-04-26 17:39 | 51.02412 | 71.46141 | 1164 ft | 10 kts | 315° |
| 2026-04-26 17:40 | 51.02467 | 71.46090 | 1164 ft | 8 kts | 356° |
| 2026-04-26 17:40 | 51.02504 | 71.46088 | 1164 ft | 8 kts | 358° |
| 2026-04-26 17:40 | 51.02566 | 71.46085 | 1163 ft | 6 kts | 358° |
| 2026-04-26 17:40 | 51.02603 | 71.46084 | 1163 ft | 4 kts | 358° |
| 2026-04-26 17:41 | 51.02618 | 71.46083 | 1163 ft | 0 kts | 358° |
| 2026-04-26 17:41 | 51.02623 | 71.46083 | 1163 ft | 1 kts | 358° |
| 2026-04-26 17:41 | 51.02624 | 71.46083 | 1163 ft | 0 kts | 358° |
| 2026-04-26 17:45 | 51.02623 | 71.46083 | 1164 ft | 0 kts | 358° |